Terminal Aerodrome Forecast
Issued by NWS Knoxville/Tri Cities, TN

Home | Current Version | Previous Version | Text Only | Print | Product List | Glossary On
Versions: 1 2 3 4 5 6 7 8 9 10 11 12 13 14 15 16 17 18 19 20 21 22 23 24 25 26 27 28 29
381
FTUS44 KMRX 072342
TAFTYS
TAF
KTYS 072342Z 0800/0824 24004KT P6SM SKC
     FM080600 22003KT P6SM BKN250
     FM080700 23005KT P6SM OVC100
     FM081000 23006KT 5SM BR BKN050 OVC100
     FM081200 23006KT 6SM -RA BR OVC015
     FM081500 24012KT P6SM VCSH OVC035
     FM081800 24016KT P6SM -SHRA OVC050
     FM082300 25012KT 6SM -SHRA BR OVC025=

USA.gov is the U.S. government's official web portal to all federal, state and local government web resources and services.